< < Back
Terminal Aerodrome Forecast


Current Version              Previous Versions:   1  2  3  4  5  6  7  8  9  

Terminal Aerodrome Forecast

176
FTUS42 KFFC 261122
TAFMCN
TAF
KMCN 261122Z 2612/2712 00000KT P6SM FEW060
     FM261400 09008KT P6SM FEW045
     FM270100 12003KT P6SM SCT120=

Latest METAR

284
SAUS80 KWBC 271500 CCA
MTRMCN
METAR KMCN 271453Z 07010KT 10SM CLR 30/20 A3010 RMK AO2 SLP186 T03000200
50005 $


USA.gov is the U.S. government's official web portal to all federal, state and local government web resources and services.